Live Weather Radar

YMHB Hobart METAR

METAR YMHB 271400Z 36011KT 9999 FEW025 SCT050 BKN210 12/05 Q1005 RMK RF00.0/000.0

YMHB Hobart Terminal Area Forecast (TAF)

TAF YMHB 271105Z 2712/2812 36012KT 9999 -RA FEW025 SCT040 FM272100 33012KT 9999 -SHRA FEW020 BKN030 FM280200 22012KT 9999 SCT030 SCT040 FM280900 33008KT 9999 FEW035 RMK FM271200 MOD/SEV TURB BLW 5000FT TILL271600 FM271600 MOD TURB BLW 5000FT TILL280200 T 10 09 08 07 Q 1007 1005 1005 1007